Time;durP1;ratioP1;P1;durP2;ratioP2;P2;SDS_P1;SDS_P2;PMS_P1;PMS_P2;Temp;Humidity;BMP_temperature;BMP_pressure;BME280_temperature;BME280_humidity;BME280_pressure;Samples;Min_cycle;Max_cycle;Signal;HPM_P1;HPM_P2
2022/05/02 00:00:10;;;;;;;0.13;0.13;;;8.30;99.90;;;;;;4983299;28;20463;-86
2022/05/02 00:02:37;;;;;;;0.20;0.20;;;8.10;99.90;;;;;;4989792;28;20440;-86
2022/05/02 00:05:04;;;;;;;0.20;0.20;;;8.00;99.90;;;;;;4989013;28;20463;-85
2022/05/02 00:07:29;;;;;;;0.20;0.20;;;8.00;99.90;;;;;;4991390;28;20929;-85
2022/05/02 00:09:55;;;;;;;0.20;0.20;;;8.00;99.90;;;;;;4986023;28;20496;-85
2022/05/02 00:12:20;;;;;;;0.20;0.20;;;8.00;99.90;;;;;;4984569;28;20920;-86
2022/05/02 00:14:46;;;;;;;0.20;0.20;;;8.10;99.90;;;;;;4975452;28;20208;-86
2022/05/02 00:17:12;;;;;;;0.20;0.20;;;8.20;99.90;;;;;;4980790;28;20196;-85
2022/05/02 00:19:37;;;;;;;0.20;0.20;;;8.10;99.90;;;;;;4988314;28;20311;-86
2022/05/02 00:22:04;;;;;;;0.17;0.17;;;8.00;99.90;;;;;;4987239;28;20437;-86
2022/05/02 00:24:29;;;;;;;0.20;0.20;;;7.90;99.90;;;;;;4974768;28;20196;-85
2022/05/02 00:26:56;;;;;;;0.10;0.10;;;7.70;99.90;;;;;;4985274;28;21249;-85
2022/05/02 00:29:22;;;;;;;0.20;0.20;;;7.70;99.90;;;;;;4986531;28;20224;-85
2022/05/02 00:31:48;;;;;;;0.20;0.20;;;7.70;99.90;;;;;;4981999;28;20432;-85
2022/05/02 00:34:13;;;;;;;0.20;0.20;;;7.50;99.90;;;;;;4984739;28;20535;-86
2022/05/02 00:36:39;;;;;;;0.30;0.30;;;7.40;99.90;;;;;;4988450;28;20217;-85
2022/05/02 00:39:05;;;;;;;0.20;0.20;;;7.30;99.90;;;;;;4991396;28;20284;-86
2022/05/02 00:41:30;;;;;;;0.20;0.20;;;7.40;99.90;;;;;;4989441;28;20527;-86
2022/05/02 00:43:56;;;;;;;0.20;0.20;;;7.40;99.90;;;;;;4991446;28;20193;-85
2022/05/02 00:46:23;;;;;;;0.20;0.20;;;7.40;99.90;;;;;;4987927;28;20201;-87
2022/05/02 00:48:49;;;;;;;0.20;0.20;;;7.20;99.90;;;;;;4987758;28;20193;-86
2022/05/02 00:51:16;;;;;;;0.20;0.20;;;7.20;99.90;;;;;;4988464;28;20491;-87
2022/05/02 00:53:44;;;;;;;0.20;0.20;;;7.10;99.90;;;;;;4988779;28;20540;-86
2022/05/02 00:56:11;;;;;;;0.20;0.20;;;7.10;99.90;;;;;;4986742;28;20507;-86
2022/05/02 00:58:37;;;;;;;0.20;0.20;;;7.10;99.90;;;;;;4988461;28;21081;-86
2022/05/02 01:01:04;;;;;;;0.27;0.27;;;7.00;99.90;;;;;;4988841;28;20479;-86
2022/05/02 01:03:30;;;;;;;0.30;0.30;;;7.00;99.90;;;;;;4989601;28;20456;-87
2022/05/02 01:08:41;;;;;;;0.30;0.30;;;6.90;99.90;;;;;;4987313;28;21121;-86
2022/05/02 01:11:08;;;;;;;0.30;0.30;;;7.00;99.90;;;;;;4987011;28;20534;-86
2022/05/02 01:13:41;;;;;;;0.27;0.27;;;7.00;99.90;;;;;;4985729;28;20181;-86
2022/05/02 01:16:25;;;;;;;0.20;0.20;;;7.10;99.90;;;;;;4984016;28;20448;-86
2022/05/02 01:18:53;;;;;;;0.20;0.20;;;7.00;99.90;;;;;;4988738;28;20940;-86
2022/05/02 01:21:24;;;;;;;0.30;0.30;;;7.10;99.90;;;;;;4986237;28;20436;-86
2022/05/02 01:23:51;;;;;;;0.30;0.30;;;7.10;99.90;;;;;;4982193;28;20440;-86
2022/05/02 01:26:17;;;;;;;0.27;0.27;;;7.10;99.90;;;;;;4985889;28;20448;-86
2022/05/02 01:28:51;;;;;;;0.20;0.20;;;7.00;99.90;;;;;;4982577;28;21170;-87
2022/05/02 01:31:18;;;;;;;0.30;0.30;;;6.90;99.90;;;;;;4976616;28;20449;-86
2022/05/02 01:33:44;;;;;;;0.20;0.20;;;6.90;99.90;;;;;;4984296;28;22156;-86
2022/05/02 01:36:10;;;;;;;0.30;0.30;;;7.00;99.90;;;;;;4983934;28;21164;-87
2022/05/02 01:38:36;;;;;;;0.30;0.30;;;6.80;99.90;;;;;;4987382;28;20497;-88
2022/05/02 01:41:03;;;;;;;0.30;0.30;;;6.70;99.90;;;;;;4986992;28;20564;-86
2022/05/02 01:43:29;;;;;;;0.20;0.20;;;6.70;99.90;;;;;;4988269;28;20604;-86
2022/05/02 01:45:54;;;;;;;0.30;0.30;;;6.60;99.90;;;;;;4986004;28;21274;-86
2022/05/02 01:48:20;;;;;;;0.30;0.30;;;6.60;99.90;;;;;;4974202;28;20498;-86
2022/05/02 01:50:46;;;;;;;0.30;0.30;;;6.60;99.90;;;;;;4985996;28;20240;-87
2022/05/02 01:53:11;;;;;;;0.30;0.30;;;6.50;99.90;;;;;;4989007;28;20223;-86
2022/05/02 01:55:37;;;;;;;0.30;0.30;;;6.50;99.90;;;;;;4976470;28;20225;-86
2022/05/02 01:58:02;;;;;;;0.30;0.30;;;6.40;99.90;;;;;;4982092;28;20190;-86
2022/05/02 02:00:28;;;;;;;0.30;0.30;;;6.30;99.90;;;;;;4985266;28;20607;-86
2022/05/02 02:02:53;;;;;;;0.30;0.30;;;6.30;99.90;;;;;;4979284;28;20212;-85
2022/05/02 02:08:04;;;;;;;0.30;0.30;;;6.10;99.90;;;;;;4975075;28;20209;-86
2022/05/02 02:10:29;;;;;;;0.27;0.27;;;6.10;99.90;;;;;;4984264;28;20488;-86
2022/05/02 02:12:55;;;;;;;0.30;0.30;;;6.10;99.90;;;;;;4984965;28;20448;-86
2022/05/02 02:15:20;;;;;;;0.30;0.30;;;6.10;99.90;;;;;;4977924;28;20273;-87
2022/05/02 02:17:46;;;;;;;0.30;0.30;;;6.10;99.90;;;;;;4982692;28;20185;-86
2022/05/02 02:20:12;;;;;;;0.30;0.30;;;6.20;99.90;;;;;;4971986;28;20197;-86
2022/05/02 02:22:39;;;;;;;0.30;0.30;;;6.20;99.90;;;;;;4974377;28;20557;-85
2022/05/02 02:25:06;;;;;;;0.30;0.30;;;6.20;99.90;;;;;;4988138;28;20456;-86
2022/05/02 02:27:32;;;;;;;0.30;0.30;;;6.20;99.90;;;;;;4982503;28;20454;-85
2022/05/02 02:29:58;;;;;;;0.33;0.33;;;6.20;99.90;;;;;;4978148;28;20488;-86
2022/05/02 02:32:24;;;;;;;0.30;0.30;;;6.30;99.90;;;;;;4986231;28;20444;-86
2022/05/02 02:34:49;;;;;;;0.30;0.30;;;6.40;99.90;;;;;;4988120;28;20456;-86
2022/05/02 02:37:16;;;;;;;0.30;0.30;;;6.40;99.90;;;;;;4984441;28;20456;-85
2022/05/02 02:39:42;;;;;;;0.27;0.27;;;6.40;99.90;;;;;;4987230;28;20188;-85
2022/05/02 02:42:08;;;;;;;0.30;0.30;;;6.40;99.90;;;;;;4987814;28;20547;-85
2022/05/02 02:44:34;;;;;;;0.33;0.33;;;6.40;99.90;;;;;;4983516;28;20524;-85
2022/05/02 02:46:59;;;;;;;0.30;0.30;;;6.40;99.90;;;;;;4984431;28;20220;-86
2022/05/02 02:49:25;;;;;;;0.30;0.30;;;6.30;99.90;;;;;;4987462;28;20214;-85
2022/05/02 02:51:51;;;;;;;0.30;0.30;;;6.30;99.90;;;;;;4987300;28;20255;-85
2022/05/02 02:54:16;;;;;;;0.30;0.30;;;6.30;99.90;;;;;;4976084;28;20186;-86
2022/05/02 02:56:42;;;;;;;0.30;0.30;;;6.30;99.90;;;;;;4983922;28;20220;-85
2022/05/02 02:59:08;;;;;;;0.30;0.30;;;6.20;99.90;;;;;;4986552;28;20267;-85
2022/05/02 03:01:33;;;;;;;0.30;0.30;;;6.20;99.90;;;;;;4987577;28;20279;-86
2022/05/02 03:06:01;;;;;;;0.30;0.30;;;6.20;99.90;;;;;;4986048;28;20197;-86
2022/05/02 03:06:45;;;;;;;0.30;0.30;;;6.20;99.90;;;;;;4983877;28;20276;-85
2022/05/02 03:09:10;;;;;;;0.30;0.30;;;6.20;99.90;;;;;;4987634;28;20562;-85
2022/05/02 03:11:36;;;;;;;0.30;0.30;;;6.30;99.90;;;;;;4985190;28;20772;-85
2022/05/02 03:14:01;;;;;;;0.30;0.30;;;6.30;99.90;;;;;;4977729;28;20193;-84
2022/05/02 03:16:27;;;;;;;0.30;0.30;;;6.40;99.90;;;;;;4987590;28;20185;-86
2022/05/02 03:18:52;;;;;;;0.30;0.30;;;6.30;99.90;;;;;;4985791;28;20185;-86
2022/05/02 03:21:18;;;;;;;0.30;0.30;;;6.40;99.90;;;;;;4987682;28;20563;-85
2022/05/02 03:23:43;;;;;;;0.30;0.30;;;6.40;99.90;;;;;;4983386;28;20189;-86
2022/05/02 03:26:08;;;;;;;0.30;0.30;;;6.40;99.90;;;;;;4985532;28;20728;-85
2022/05/02 03:28:34;;;;;;;0.30;0.30;;;6.40;99.90;;;;;;4979749;28;20695;-85
2022/05/02 03:31:00;;;;;;;0.30;0.30;;;6.30;99.90;;;;;;4987583;28;20267;-85
2022/05/02 03:33:25;;;;;;;0.30;0.30;;;6.30;99.90;;;;;;4988603;28;20180;-85
2022/05/02 03:35:50;;;;;;;0.30;0.30;;;6.20;99.90;;;;;;4982215;28;20196;-85
2022/05/02 03:38:16;;;;;;;0.30;0.30;;;6.20;99.90;;;;;;4981026;28;20708;-86
2022/05/02 03:40:42;;;;;;;0.30;0.30;;;6.40;99.90;;;;;;4982232;28;20729;-86
2022/05/02 03:43:07;;;;;;;0.30;0.30;;;6.50;99.90;;;;;;4987558;28;20197;-86
2022/05/02 03:45:33;;;;;;;0.30;0.30;;;6.40;99.90;;;;;;4983136;28;22398;-86
2022/05/02 03:47:59;;;;;;;0.30;0.30;;;6.30;99.90;;;;;;4980203;28;20189;-85
2022/05/02 03:50:24;;;;;;;0.30;0.30;;;6.20;99.90;;;;;;4985733;28;20237;-85
2022/05/02 03:52:50;;;;;;;0.23;0.23;;;6.10;99.90;;;;;;4984746;28;20276;-86
2022/05/02 03:55:15;;;;;;;0.30;0.30;;;6.20;99.90;;;;;;4985451;28;20631;-86
2022/05/02 03:57:41;;;;;;;0.30;0.30;;;6.20;99.90;;;;;;4983184;28;20240;-86
2022/05/02 04:00:07;;;;;;;0.20;0.20;;;6.20;99.90;;;;;;4985734;28;20284;-84
2022/05/02 04:02:33;;;;;;;0.30;0.30;;;6.20;99.90;;;;;;4985774;28;20237;-85
2022/05/02 04:04:58;;;;;;;0.30;0.30;;;6.20;99.90;;;;;;4988793;28;20448;-86
2022/05/02 04:07:24;;;;;;;0.30;0.30;;;6.20;99.90;;;;;;4982549;28;20939;-85
2022/05/02 04:09:50;;;;;;;0.20;0.20;;;6.20;99.90;;;;;;4980223;28;20324;-86
2022/05/02 04:12:16;;;;;;;0.30;0.30;;;6.30;99.90;;;;;;4985230;28;21492;-84
2022/05/02 04:14:41;;;;;;;0.20;0.20;;;6.20;99.90;;;;;;4985954;28;20238;-86
2022/05/02 04:17:07;;;;;;;0.30;0.30;;;6.20;99.90;;;;;;4980567;28;20212;-85
2022/05/02 04:19:33;;;;;;;0.30;0.30;;;6.10;99.90;;;;;;4988380;28;20197;-86
2022/05/02 04:21:58;;;;;;;0.30;0.30;;;6.20;99.90;;;;;;4986198;28;20196;-86
2022/05/02 04:24:24;;;;;;;0.30;0.30;;;6.50;99.90;;;;;;4981623;28;20445;-85
2022/05/02 04:26:49;;;;;;;0.30;0.30;;;6.60;99.90;;;;;;4978359;28;20188;-85
2022/05/02 04:29:15;;;;;;;0.40;0.40;;;6.40;99.90;;;;;;4988046;28;20220;-86
2022/05/02 04:31:41;;;;;;;0.30;0.30;;;6.40;99.90;;;;;;4986069;28;20280;-86
2022/05/02 04:34:06;;;;;;;0.30;0.30;;;6.20;99.90;;;;;;4989261;28;20235;-85
2022/05/02 04:36:32;;;;;;;0.30;0.30;;;6.40;99.90;;;;;;4984155;28;20268;-86
2022/05/02 04:38:57;;;;;;;0.40;0.40;;;6.30;99.90;;;;;;4989301;28;20315;-86
2022/05/02 04:41:22;;;;;;;0.30;0.30;;;6.30;99.90;;;;;;4982472;28;20809;-86
2022/05/02 04:43:51;;;;;;;0.30;0.30;;;6.20;99.90;;;;;;4980123;28;20185;-86
2022/05/02 04:46:21;;;;;;;0.40;0.40;;;6.10;99.90;;;;;;4983644;28;20530;-85
2022/05/02 04:48:46;;;;;;;0.30;0.30;;;6.10;99.90;;;;;;4986589;28;20502;-85
2022/05/02 04:51:12;;;;;;;0.30;0.30;;;6.20;99.90;;;;;;4985718;28;20492;-86
2022/05/02 04:53:38;;;;;;;0.30;0.30;;;6.30;99.90;;;;;;4979274;28;20213;-85
2022/05/02 04:56:04;;;;;;;0.33;0.33;;;6.10;99.90;;;;;;4990006;28;20448;-85
2022/05/02 04:58:30;;;;;;;0.33;0.33;;;6.00;99.90;;;;;;4991090;28;20193;-85
2022/05/02 05:00:55;;;;;;;0.40;0.40;;;6.10;99.90;;;;;;4989835;28;20185;-86
2022/05/02 05:03:21;;;;;;;0.40;0.40;;;6.20;99.90;;;;;;4984235;28;20189;-86
2022/05/02 05:05:47;;;;;;;0.30;0.30;;;6.30;99.90;;;;;;4988306;28;20192;-87
2022/05/02 05:08:15;;;;;;;0.30;0.30;;;6.30;99.90;;;;;;4987406;28;20531;-84
2022/05/02 05:10:59;;;;;;;0.30;0.30;;;6.40;99.90;;;;;;4984745;28;20600;-83
2022/05/02 05:13:33;;;;;;;0.30;0.30;;;6.50;99.90;;;;;;4984168;28;20458;-82
2022/05/02 05:16:21;;;;;;;0.30;0.30;;;6.60;99.90;;;;;;4985486;28;20614;-83
2022/05/02 05:19:22;;;;;;;0.30;0.30;;;6.70;99.90;;;;;;4980322;28;21232;-84
2022/05/02 05:22:16;;;;;;;0.30;0.30;;;6.80;99.90;;;;;;4986843;28;20443;-83
2022/05/02 05:24:53;;;;;;;0.30;0.30;;;6.90;99.90;;;;;;4986464;28;20463;-84
2022/05/02 05:27:33;;;;;;;0.30;0.30;;;7.00;99.90;;;;;;4983216;28;20531;-84
2022/05/02 05:30:09;;;;;;;0.20;0.20;;;7.10;99.90;;;;;;4988674;28;20514;-82
2022/05/02 05:33:04;;;;;;;0.20;0.20;;;7.30;99.90;;;;;;4980001;28;20548;-83
2022/05/02 05:35:39;;;;;;;0.30;0.30;;;7.40;99.90;;;;;;4980172;28;20827;-83
2022/05/02 05:38:16;;;;;;;0.30;0.30;;;7.50;99.90;;;;;;4978714;28;20445;-82
2022/05/02 05:40:44;;;;;;;0.30;0.30;;;7.70;99.90;;;;;;4978686;28;20447;-84
2022/05/02 05:43:10;;;;;;;0.40;0.40;;;7.80;99.90;;;;;;4987590;28;20456;-83
2022/05/02 05:46:02;;;;;;;0.60;0.60;;;7.90;99.90;;;;;;4986175;28;20451;-83
2022/05/02 05:48:43;;;;;;;0.60;0.60;;;8.00;99.90;;;;;;4978857;28;20185;-84
2022/05/02 05:51:28;;;;;;;0.50;0.50;;;8.20;99.90;;;;;;4987359;28;20491;-82
2022/05/02 05:54:10;;;;;;;0.70;0.70;;;8.40;99.90;;;;;;4984232;28;20444;-83
2022/05/02 05:57:12;;;;;;;0.33;0.33;;;8.40;99.90;;;;;;4987491;28;20441;-83
2022/05/02 05:59:53;;;;;;;0.20;0.20;;;8.50;99.90;;;;;;4987379;28;20463;-82
2022/05/02 06:02:22;;;;;;;0.20;0.20;;;8.70;99.90;;;;;;4990699;28;20444;-83
2022/05/02 06:04:51;;;;;;;0.20;0.20;;;8.70;99.90;;;;;;4987685;28;20445;-84
2022/05/02 06:07:21;;;;;;;0.20;0.20;;;8.70;99.90;;;;;;4988616;28;20968;-84
2022/05/02 06:09:52;;;;;;;0.20;0.20;;;8.90;99.90;;;;;;4987893;28;20484;-82
2022/05/02 06:12:21;;;;;;;0.10;0.10;;;8.90;99.90;;;;;;4990696;28;20452;-83
2022/05/02 06:20:24;;;;;;;0.20;0.20;;;9.20;99.90;;;;;;4991029;28;20491;-84
2022/05/02 06:22:50;;;;;;;0.40;0.40;;;9.30;99.90;;;;;;4974731;28;20453;-84
2022/05/02 06:25:18;;;;;;;0.40;0.40;;;9.30;99.90;;;;;;4985134;28;20477;-84
2022/05/02 06:27:45;;;;;;;0.30;0.30;;;9.50;99.90;;;;;;4980727;28;21031;-83
2022/05/02 06:30:11;;;;;;;0.40;0.40;;;9.50;99.90;;;;;;4979132;28;20480;-83
2022/05/02 06:32:37;;;;;;;0.20;0.20;;;9.50;99.90;;;;;;4990916;28;20511;-85
2022/05/02 06:35:04;;;;;;;0.40;0.40;;;9.80;99.90;;;;;;4986609;28;20188;-84
2022/05/02 06:37:54;;;;;;;0.50;0.50;;;9.90;99.90;;;;;;4986035;28;20452;-84
2022/05/02 06:40:23;;;;;;;0.37;0.37;;;10.20;99.90;;;;;;4987469;28;20452;-84
2022/05/02 06:43:26;;;;;;;0.50;0.50;;;10.20;99.90;;;;;;4983894;28;20555;-84
2022/05/02 06:46:00;;;;;;;0.60;0.60;;;10.30;99.90;;;;;;4984166;28;20452;-84
2022/05/02 06:48:35;;;;;;;0.40;0.40;;;10.40;99.90;;;;;;4989363;28;20444;-83
2022/05/02 06:51:23;;;;;;;0.40;0.40;;;10.40;99.90;;;;;;4986621;28;20530;-83
2022/05/02 06:54:10;;;;;;;0.57;0.57;;;10.50;99.90;;;;;;4981065;28;20440;-83
2022/05/02 06:56:50;;;;;;;0.50;0.50;;;10.60;99.90;;;;;;4986461;28;20448;-82
2022/05/02 06:59:34;;;;;;;0.20;0.20;;;10.60;99.90;;;;;;4989190;28;20451;-82
2022/05/02 07:02:12;;;;;;;0.30;0.30;;;10.70;99.90;;;;;;4982707;28;20451;-85
2022/05/02 07:04:54;;;;;;;0.20;0.20;;;11.10;99.90;;;;;;4975845;28;20883;-86
2022/05/02 07:07:43;;;;;;;0.40;0.40;;;11.20;99.90;;;;;;4971527;28;20460;-82
2022/05/02 07:10:17;;;;;;;0.30;0.30;;;10.90;99.90;;;;;;4985610;28;20486;-84
2022/05/02 07:13:20;;;;;;;0.30;0.30;;;11.00;99.90;;;;;;4987897;28;20459;-82
2022/05/02 07:16:24;;;;;;;0.33;0.33;;;11.00;99.90;;;;;;4989186;28;20431;-82
2022/05/02 07:19:03;;;;;;;0.30;0.30;;;11.40;99.90;;;;;;4981959;28;21070;-85
2022/05/02 07:22:01;;;;;;;0.20;0.20;;;11.60;99.90;;;;;;4980812;28;20523;-85
2022/05/02 07:24:50;;;;;;;0.40;0.40;;;11.60;99.90;;;;;;4930997;28;20484;-85
2022/05/02 07:27:25;;;;;;;0.27;0.27;;;11.60;99.90;;;;;;4983628;28;20424;-85
2022/05/02 07:29:50;;;;;;;0.20;0.20;;;11.80;99.90;;;;;;4988435;28;20996;-84
2022/05/02 07:32:21;;;;;;;0.40;0.40;;;12.10;99.90;;;;;;4987710;28;20440;-84
2022/05/02 07:34:48;;;;;;;0.43;0.43;;;12.30;99.90;;;;;;4996044;28;20515;-84
2022/05/02 07:37:15;;;;;;;0.33;0.33;;;12.10;99.90;;;;;;4987038;28;20440;-84
2022/05/02 07:39:43;;;;;;;0.30;0.30;;;12.20;99.90;;;;;;4993647;28;20459;-82
2022/05/02 07:42:10;;;;;;;0.20;0.20;;;12.10;99.90;;;;;;4993867;28;20456;-83
2022/05/02 07:44:38;;;;;;;0.20;0.20;;;12.10;99.90;;;;;;4986008;28;20463;-85
2022/05/02 07:47:04;;;;;;;0.10;0.10;;;12.20;99.90;;;;;;4985578;28;20436;-85
2022/05/02 07:49:33;;;;;;;0.10;0.10;;;12.20;99.90;;;;;;4986434;28;20501;-84
2022/05/02 07:52:00;;;;;;;0.20;0.20;;;12.80;99.90;;;;;;4983108;28;20862;-84
2022/05/02 07:54:30;;;;;;;0.10;0.10;;;12.70;99.90;;;;;;4986063;28;20944;-85
2022/05/02 07:57:00;;;;;;;0.10;0.10;;;12.90;99.90;;;;;;4983317;28;20448;-84
2022/05/02 08:16:15;;;;;;;0.10;0.10;;;13.70;99.90;;;;;;5063897;27;20652;-82
2022/05/02 08:19:29;;;;;;;0.10;0.10;;;13.70;99.90;;;;;;5043924;28;20454;-81
2022/05/02 08:27:15;;;;;;;0.10;0.10;;;13.90;99.90;;;;;;5038863;28;20908;-81
2022/05/02 08:28:14;;;;;;;0.10;0.10;;;13.60;99.90;;;;;;5042922;28;20487;-83
2022/05/02 08:31:12;;;;;;;0.10;0.10;;;13.80;99.90;;;;;;5047968;28;20455;-81
2022/05/02 08:33:45;;;;;;;0.10;0.10;;;14.10;99.90;;;;;;5051017;28;20495;-83
2022/05/02 08:36:55;;;;;;;0.10;0.10;;;14.70;99.90;;;;;;5049296;28;20459;-82
2022/05/02 08:39:36;;;;;;;0.10;0.10;;;14.80;99.90;;;;;;5065403;28;20463;-82
2022/05/02 08:42:14;;;;;;;0.10;0.10;;;14.60;99.90;;;;;;5047436;28;21017;-82
2022/05/02 08:45:15;;;;;;;0.10;0.10;;;14.60;99.90;;;;;;5043490;28;20495;-82
2022/05/02 08:48:11;;;;;;;0.10;0.10;;;14.50;99.90;;;;;;5053694;28;20569;-82
2022/05/02 08:50:58;;;;;;;0.10;0.10;;;14.70;99.90;;;;;;5050512;28;20454;-81
2022/05/02 08:53:54;;;;;;;0.10;0.10;;;14.50;99.90;;;;;;5040774;28;20437;-82
2022/05/02 08:56:35;;;;;;;0.10;0.10;;;14.30;99.90;;;;;;5035542;28;20450;-82
2022/05/02 08:59:19;;;;;;;0.10;0.10;;;14.30;99.90;;;;;;5032999;28;20528;-83
2022/05/02 09:02:10;;;;;;;0.10;0.10;;;14.90;99.90;;;;;;5050494;28;20508;-80
2022/05/02 09:04:36;;;;;;;0.10;0.10;;;14.40;99.90;;;;;;5041683;28;20420;-80
2022/05/02 09:07:29;;;;;;;0.10;0.10;;;14.30;99.90;;;;;;5040840;28;20777;-80
2022/05/02 09:10:23;;;;;;;0.10;0.10;;;14.30;99.90;;;;;;5054713;28;20281;-83
2022/05/02 09:13:19;;;;;;;0.10;0.10;;;14.00;99.90;;;;;;5047494;28;20453;-83
2022/05/02 09:16:12;;;;;;;0.10;0.10;;;14.80;99.90;;;;;;5045858;28;20508;-83
2022/05/02 09:19:17;;;;;;;0.10;0.10;;;14.40;99.90;;;;;;5046888;28;20528;-82
2022/05/02 09:22:01;;;;;;;0.10;0.10;;;14.70;99.90;;;;;;5031083;28;20452;-83
2022/05/02 09:24:50;;;;;;;0.10;0.10;;;14.50;99.90;;;;;;5042670;28;20478;-83
2022/05/02 09:27:37;;;;;;;0.10;0.10;;;14.40;99.90;;;;;;5033278;28;20468;-83
2022/05/02 09:30:21;;;;;;;0.10;0.10;;;14.30;99.90;;;;;;5025180;28;20802;-83
2022/05/02 09:33:02;;;;;;;0.10;0.10;;;14.20;99.90;;;;;;5033936;28;20433;-83
2022/05/02 09:35:43;;;;;;;0.10;0.10;;;14.00;99.90;;;;;;5030598;28;20485;-84
2022/05/02 09:38:23;;;;;;;0.10;0.10;;;14.20;99.90;;;;;;5027376;28;20479;-83
2022/05/02 09:41:15;;;;;;;0.10;0.10;;;14.10;99.90;;;;;;5026495;28;20950;-83
2022/05/02 09:50:19;;;;;;;0.10;0.10;;;14.10;99.90;;;;;;5038109;28;20479;-84
2022/05/02 09:53:09;;;;;;;0.10;0.10;;;14.10;99.90;;;;;;5013187;28;20810;-82
2022/05/02 09:58:42;;;;;;;0.00;0.00;;;16.20;99.90;;;;;;5030721;28;20448;-83
2022/05/02 10:01:21;;;;;;;0.00;0.00;;;15.90;99.90;;;;;;5039595;28;20451;-84
2022/05/02 10:03:59;;;;;;;0.00;0.00;;;14.60;99.90;;;;;;5034441;28;20448;-83
2022/05/02 10:06:43;;;;;;;0.00;0.00;;;14.40;99.90;;;;;;5030774;28;20447;-83
2022/05/02 10:09:30;;;;;;;0.00;0.00;;;14.20;99.90;;;;;;5024340;28;20461;-84
2022/05/02 10:12:22;;;;;;;0.00;0.00;;;14.30;99.90;;;;;;5034528;28;20973;-83
2022/05/02 10:14:59;;;;;;;0.00;0.00;;;14.50;99.90;;;;;;5021681;28;20494;-85
2022/05/02 10:17:59;;;;;;;0.00;0.00;;;15.30;99.90;;;;;;5032405;28;20514;-85
2022/05/02 10:20:37;;;;;;;0.00;0.00;;;16.80;99.90;;;;;;5043365;28;20463;-87
2022/05/02 10:23:19;;;;;;;0.00;0.00;;;17.70;99.90;;;;;;5055760;28;20439;-87
2022/05/02 10:26:14;;;;;;;0.00;0.00;;;18.10;99.40;;;;;;5029109;28;20446;-86
2022/05/02 10:29:01;;;;;;;0.00;0.00;;;18.20;99.10;;;;;;5021642;28;20450;-86
2022/05/02 10:31:33;;;;;;;0.00;0.00;;;16.90;98.10;;;;;;5043114;28;20495;-86
2022/05/02 10:34:02;;;;;;;0.00;0.00;;;17.40;99.90;;;;;;5027963;28;20545;-85
2022/05/02 10:36:39;;;;;;;0.00;0.00;;;18.40;98.80;;;;;;5050158;28;20425;-85
2022/05/02 10:39:47;;;;;;;0.00;0.00;;;17.80;97.40;;;;;;5027607;28;20442;-84
2022/05/02 10:42:17;;;;;;;0.00;0.00;;;17.40;96.50;;;;;;5030267;28;20439;-84
2022/05/02 10:44:54;;;;;;;0.00;0.00;;;17.90;98.10;;;;;;5020210;28;20973;-84
2022/05/02 10:47:20;;;;;;;0.00;0.00;;;17.50;95.20;;;;;;5031507;28;20457;-84
2022/05/02 10:50:04;;;;;;;0.00;0.00;;;18.80;95.50;;;;;;5014852;28;20438;-84
2022/05/02 10:52:52;;;;;;;0.00;0.00;;;19.80;97.90;;;;;;5025530;28;20237;-84
2022/05/02 10:55:31;;;;;;;0.00;0.00;;;19.20;91.20;;;;;;5019016;28;20988;-84
2022/05/02 10:58:03;;;;;;;0.00;0.00;;;18.90;92.00;;;;;;5031314;28;20490;-83
2022/05/02 11:00:29;;;;;;;0.00;0.00;;;17.90;92.10;;;;;;5058787;28;20458;-83
2022/05/02 11:02:58;;;;;;;0.00;0.00;;;17.70;92.70;;;;;;5030216;28;20481;-83
2022/05/02 11:05:28;;;;;;;0.00;0.00;;;18.10;90.90;;;;;;5024678;28;20453;-84
2022/05/02 11:07:58;;;;;;;0.00;0.00;;;18.90;94.90;;;;;;5028473;28;21019;-83
2022/05/02 11:10:29;;;;;;;0.00;0.00;;;19.40;93.30;;;;;;5028316;28;20442;-84
2022/05/02 11:13:11;;;;;;;0.00;0.00;;;20.30;88.30;;;;;;5021514;28;20500;-87
2022/05/02 11:16:18;;;;;;;0.00;0.00;;;20.10;90.60;;;;;;5018031;28;20496;-87
2022/05/02 11:21:55;;;;;;;0.00;0.00;;;21.00;80.50;;;;;;5019665;28;20457;-85
2022/05/02 11:24:54;;;;;;;0.00;0.00;;;20.90;78.00;;;;;;5037564;28;20528;-87
2022/05/02 11:27:25;;;;;;;0.00;0.00;;;21.20;83.70;;;;;;5021287;28;20484;-87
2022/05/02 11:30:02;;;;;;;0.00;0.00;;;20.10;77.80;;;;;;5031494;28;20455;-84
2022/05/02 11:32:53;;;;;;;0.00;0.00;;;18.80;80.90;;;;;;5033665;28;20469;-83
2022/05/02 11:35:33;;;;;;;0.00;0.00;;;17.30;89.20;;;;;;5021426;28;20929;-86
2022/05/02 11:38:16;;;;;;;0.00;0.00;;;19.20;90.90;;;;;;5022225;28;20443;-86
2022/05/02 11:40:46;;;;;;;0.00;0.00;;;20.10;88.10;;;;;;5036307;28;20966;-87
2022/05/02 11:43:19;;;;;;;0.00;0.00;;;20.20;78.50;;;;;;5027180;28;20929;-86
2022/05/02 11:46:24;;;;;;;0.00;0.00;;;21.10;79.50;;;;;;5037374;28;20534;-86
2022/05/02 11:49:10;;;;;;;0.00;0.00;;;22.40;76.80;;;;;;5019316;28;20441;-85
2022/05/02 11:51:50;;;;;;;0.00;0.00;;;21.20;82.80;;;;;;5025636;28;20456;-84
2022/05/02 11:54:28;;;;;;;0.00;0.00;;;21.90;84.70;;;;;;5039615;28;20476;-86
2022/05/02 11:57:05;;;;;;;0.00;0.00;;;21.70;80.40;;;;;;5038872;28;20436;-86
2022/05/02 11:59:53;;;;;;;0.00;0.00;;;21.70;76.80;;;;;;5036094;28;20869;-86
2022/05/02 12:02:58;;;;;;;0.00;0.00;;;19.70;77.30;;;;;;5030588;28;20627;-85
2022/05/02 12:05:31;;;;;;;0.00;0.00;;;19.30;77.70;;;;;;5030325;28;20421;-84
2022/05/02 12:07:59;;;;;;;0.00;0.00;;;19.80;86.70;;;;;;5026819;28;20966;-84
2022/05/02 12:10:39;;;;;;;0.00;0.00;;;20.00;75.20;;;;;;5025647;28;20445;-85
2022/05/02 12:13:07;;;;;;;0.00;0.00;;;20.30;76.10;;;;;;5028396;28;20540;-85
2022/05/02 12:15:33;;;;;;;0.00;0.00;;;20.80;79.30;;;;;;5031527;28;20481;-84
2022/05/02 12:18:03;;;;;;;0.00;0.00;;;20.70;76.40;;;;;;5034319;28;20456;-84
2022/05/02 12:20:39;;;;;;;0.00;0.00;;;19.90;80.30;;;;;;5060888;28;20184;-85
2022/05/02 12:23:33;;;;;;;0.00;0.00;;;21.00;76.30;;;;;;5017935;28;20451;-84
2022/05/02 12:26:02;;;;;;;0.00;0.00;;;21.90;73.20;;;;;;5031424;28;20453;-86
2022/05/02 12:28:43;;;;;;;0.00;0.00;;;20.10;74.60;;;;;;5028414;28;20469;-85
2022/05/02 12:31:15;;;;;;;0.00;0.00;;;20.80;73.50;;;;;;5028711;28;20449;-87
2022/05/02 12:33:43;;;;;;;0.00;0.00;;;22.40;77.90;;;;;;5027555;28;20446;-85
2022/05/02 12:36:20;;;;;;;0.00;0.00;;;21.50;67.40;;;;;;5030030;28;20456;-87
2022/05/02 12:39:03;;;;;;;0.00;0.00;;;21.30;70.90;;;;;;5020101;28;20438;-86
2022/05/02 12:41:38;;;;;;;0.00;0.00;;;21.10;74.70;;;;;;5020324;28;20454;-86
2022/05/02 12:44:08;;;;;;;0.00;0.00;;;21.90;74.30;;;;;;5025686;28;20448;-85
2022/05/02 12:46:41;;;;;;;0.00;0.00;;;22.00;66.00;;;;;;5023063;28;20591;-84
2022/05/02 12:49:28;;;;;;;0.00;0.00;;;21.60;67.10;;;;;;5056226;28;20529;-85
2022/05/02 12:51:55;;;;;;;0.00;0.00;;;21.80;66.10;;;;;;5034506;28;20513;-85
2022/05/02 12:54:25;;;;;;;0.00;0.00;;;22.20;63.60;;;;;;5028405;28;20478;-86
2022/05/02 13:02:38;;;;;;;0.00;0.00;;;22.60;71.80;;;;;;5033899;28;20461;-87
2022/05/02 13:05:13;;;;;;;0.00;0.00;;;22.30;66.90;;;;;;5032476;28;20441;-85
2022/05/02 13:07:45;;;;;;;0.00;0.00;;;21.80;68.20;;;;;;5030311;28;20934;-84
2022/05/02 13:10:23;;;;;;;0.00;0.00;;;21.70;66.50;;;;;;5055284;28;20441;-85
2022/05/02 13:13:03;;;;;;;0.00;0.00;;;21.70;63.30;;;;;;5028483;28;20449;-85
2022/05/02 13:15:48;;;;;;;0.00;0.00;;;22.50;67.40;;;;;;5040585;28;20501;-86
2022/05/02 13:18:18;;;;;;;0.00;0.00;;;21.90;62.50;;;;;;5017769;28;20483;-85
2022/05/02 13:21:00;;;;;;;0.00;0.00;;;21.60;66.70;;;;;;5029400;28;20924;-84
2022/05/02 13:23:45;;;;;;;0.00;0.00;;;21.40;65.20;;;;;;5031227;28;20533;-84
2022/05/02 13:26:26;;;;;;;0.00;0.00;;;22.00;64.50;;;;;;5019018;28;20502;-85
2022/05/02 13:28:58;;;;;;;0.00;0.00;;;21.80;65.60;;;;;;5019340;28;20459;-85
2022/05/02 13:31:39;;;;;;;0.00;0.00;;;21.10;63.00;;;;;;5013217;28;20506;-83
2022/05/02 13:34:06;;;;;;;0.00;0.00;;;20.80;61.30;;;;;;5014014;28;20553;-84
2022/05/02 13:36:42;;;;;;;0.00;0.00;;;21.20;64.30;;;;;;5032922;28;20426;-84
2022/05/02 13:39:19;;;;;;;0.00;0.00;;;21.70;66.20;;;;;;5031045;28;20979;-84
2022/05/02 13:42:17;;;;;;;0.00;0.00;;;22.00;67.60;;;;;;5023596;28;20443;-85
2022/05/02 13:44:53;;;;;;;0.00;0.00;;;21.90;65.50;;;;;;5014640;28;20451;-86
2022/05/02 13:47:22;;;;;;;0.00;0.00;;;21.60;66.30;;;;;;5051057;28;20910;-86
2022/05/02 13:49:51;;;;;;;0.00;0.00;;;20.20;69.00;;;;;;5026977;28;20945;-85
2022/05/02 13:52:23;;;;;;;0.00;0.00;;;20.90;68.60;;;;;;5046671;28;20545;-85
2022/05/02 13:54:52;;;;;;;0.00;0.00;;;21.20;66.40;;;;;;5024407;28;20481;-85
2022/05/02 13:57:43;;;;;;;0.00;0.00;;;21.60;66.30;;;;;;5035556;28;20530;-86
2022/05/02 14:01:17;;;;;;;0.00;0.00;;;21.70;69.60;;;;;;5035146;28;20450;-86
2022/05/02 14:03:22;;;;;;;0.00;0.00;;;20.90;67.90;;;;;;5027738;28;20446;-87
2022/05/02 14:08:36;;;;;;;0.00;0.00;;;20.80;68.00;;;;;;5019190;28;20526;-83
2022/05/02 14:11:02;;;;;;;0.00;0.00;;;21.20;63.90;;;;;;5047857;28;20800;-85
2022/05/02 14:13:28;;;;;;;0.00;0.00;;;20.70;64.90;;;;;;5024695;28;20446;-86
2022/05/02 14:16:07;;;;;;;0.00;0.00;;;20.90;67.00;;;;;;5012556;28;20223;-86
2022/05/02 14:18:47;;;;;;;0.00;0.00;;;20.40;62.80;;;;;;5012607;28;20426;-82
2022/05/02 14:21:12;;;;;;;0.00;0.00;;;20.40;63.80;;;;;;5016718;28;20445;-86